»·PEaware :: AAL1982 KPHX-KSNA

AAL1982 :: KPHX-KSNA

FLIGHT INFORMATION

Flight Status: Arrived
Operator:
American Airlines
More flights by this operator :: More flights under this callsign
Pilot: Andrew Jones (13363)
Aircraft: BOEING 737-800
(B738)
More flights by this aircraft type
Origin: KPHX Phoenix Sky Harbor Intl
United States
Destination: KSNA John Wayne-Orange Co
United States
More flights between these airports :: More routes between these airports
Route: IZZZO6 HRRBR EMLLD DSNEE1
File this flight plan on PilotEdge
Remarks: Twitch.tv / ajonesieee
Altitude:
(Current/Filed)
34,000ft
Speed:
(Current/Filed)
400kts
Departed: 10-Aug-17 08:54 PM
Arrived: 10-Aug-17 09:48 PM
Distance/Time
Traveled:
293nm/0:53
Distance/Time
To Go:
Arrived

Flight Plot

Page will automatically refresh every two minutes.

Flight plan parsing failed; only flown route is shown


Map Options




Map Legend


Flown Route
Filed Route
Departure Airport
Arrival Airport
Navaid (VOR, NDB)
Fix

Horizontal Profiles

Position Reports

Time Latitude Longitude Heading Altitude Ground
Speed
10-Aug-17 20:34 33.436508 -111.997370 90 1141ft 0kts
10-Aug-17 20:35 33.436508 -111.997370 90 1141ft 0kts
10-Aug-17 20:36 33.436508 -111.997370 90 1141ft 0kts
10-Aug-17 20:37 33.436508 -111.997370 90 1141ft 0kts
10-Aug-17 20:38 33.436508 -111.997370 90 1141ft 0kts
10-Aug-17 20:39 33.436508 -111.997370 90 1142ft 0kts
10-Aug-17 20:40 33.436508 -111.997370 90 1142ft 0kts
10-Aug-17 20:41 33.436511 -111.998041 90 1142ft 2kts
10-Aug-17 20:42 33.437614 -111.997823 359 1142ft 7kts
10-Aug-17 20:43 33.438026 -111.997824 359 1142ft 0kts
10-Aug-17 20:44 33.438026 -111.997824 359 1142ft 0kts
10-Aug-17 20:45 33.438026 -111.997824 359 1142ft 0kts
10-Aug-17 20:46 33.438026 -111.997824 359 1142ft 0kts
10-Aug-17 20:47 33.438026 -111.997824 359 1142ft 0kts
10-Aug-17 20:48 33.438248 -111.997827 359 1142ft 2kts
10-Aug-17 20:49 33.438477 -111.997821 2 1142ft 4kts
10-Aug-17 20:50 33.439055 -111.996171 88 1142ft 9kts
10-Aug-17 20:51 33.439718 -111.993216 91 1142ft 12kts
10-Aug-17 20:52 33.439850 -111.992357 35 1142ft 0kts
10-Aug-17 20:53 33.439850 -111.992357 35 1142ft 0kts
10-Aug-17 20:54 33.439850 -111.992357 35 1142ft 0kts
10-Aug-17 20:55 33.440022 -111.992267 13 1142ft 4kts
10-Aug-17 20:56 33.440820 -111.993760 271 1142ft 29kts
10-Aug-17 20:57 33.440959 -112.040873 272 2595ft 195kts
10-Aug-17 20:58 33.442701 -112.108316 273 5691ft 217kts
10-Aug-17 20:59 33.444148 -112.192104 271 8218ft 286kts
10-Aug-17 21:00 33.445560 -112.292450 271 10983ft 336kts
10-Aug-17 21:01 33.447402 -112.407663 271 14199ft 362kts
10-Aug-17 21:02 33.449290 -112.529220 270 17479ft 380kts
10-Aug-17 21:03 33.451139 -112.656419 269 20556ft 396kts
10-Aug-17 21:04 33.453169 -112.787458 273 23288ft 409kts
10-Aug-17 21:05 33.476021 -112.921815 279 25923ft 419kts
10-Aug-17 21:06 33.500791 -113.055776 278 29254ft 405kts
10-Aug-17 21:07 33.524002 -113.182117 278 32009ft 390kts
10-Aug-17 21:08 33.546977 -113.306811 278 33884ft 387kts
10-Aug-17 21:09 33.570816 -113.437601 279 33927ft 420kts
10-Aug-17 21:10 33.596793 -113.578425 279 33908ft 440kts
10-Aug-17 21:11 33.622614 -113.717087 279 33888ft 439kts
10-Aug-17 21:12 33.650012 -113.858519 287 33856ft 443kts
10-Aug-17 21:13 33.699684 -113.993554 290 33883ft 445kts
10-Aug-17 21:14 33.750665 -114.127988 285 33864ft 442kts
10-Aug-17 21:15 33.772325 -114.271056 275 33883ft 437kts
10-Aug-17 21:16 33.789376 -114.414498 274 33880ft 437kts
10-Aug-17 21:17 33.805974 -114.558392 274 33880ft 437kts
10-Aug-17 21:18 33.820020 -114.681648 274 33885ft 437kts
10-Aug-17 21:19 33.835558 -114.819154 274 33884ft 437kts
10-Aug-17 21:20 33.851696 -114.963400 274 33883ft 436kts
10-Aug-17 21:21 33.867670 -115.106719 274 33883ft 433kts
10-Aug-17 21:22 33.883232 -115.248483 273 33870ft 431kts
10-Aug-17 21:23 33.898612 -115.390304 273 33618ft 413kts
10-Aug-17 21:24 33.912685 -115.520963 273 31531ft 372kts
10-Aug-17 21:25 33.925775 -115.646682 272 29832ft 390kts
10-Aug-17 21:26 33.932290 -115.735190 271 29430ft 384kts
10-Aug-17 21:27 33.941441 -115.863693 271 29327ft 387kts
10-Aug-17 21:28 33.950406 -115.992140 271 28878ft 392kts
10-Aug-17 21:29 33.959335 -116.122504 271 26779ft 393kts
10-Aug-17 21:30 33.958107 -116.250011 260 24989ft 390kts
10-Aug-17 21:31 33.943775 -116.372129 259 23291ft 381kts
10-Aug-17 21:32 33.928716 -116.494612 259 21555ft 373kts
10-Aug-17 21:33 33.913349 -116.615730 259 19850ft 366kts
10-Aug-17 21:34 33.900464 -116.715384 259 18467ft 359kts
10-Aug-17 21:35 33.889484 -116.808475 260 16978ft 353kts
10-Aug-17 21:36 33.876956 -116.923081 260 15412ft 345kts
10-Aug-17 21:37 33.864783 -117.033990 260 13855ft 337kts
10-Aug-17 21:38 33.852664 -117.143031 260 12327ft 331kts
10-Aug-17 21:39 33.840585 -117.249820 260 10802ft 321kts
10-Aug-17 21:40 33.830053 -117.342713 261 9447ft 291kts
10-Aug-17 21:41 33.820553 -117.431873 272 8171ft 262kts
10-Aug-17 21:42 33.834862 -117.514005 281 6842ft 242kts
10-Aug-17 21:43 33.849219 -117.590792 281 5597ft 233kts
10-Aug-17 21:44 33.861459 -117.655546 281 4961ft 225kts
10-Aug-17 21:45 33.874260 -117.721806 278 4970ft 225kts
10-Aug-17 21:46 33.839280 -117.762582 201 4317ft 214kts
10-Aug-17 21:47 33.789366 -117.792091 215 2824ft 201kts
10-Aug-17 21:48 33.748113 -117.822851 208 1729ft 162kts
10-Aug-17 21:49 33.710821 -117.846671 207 779ft 148kts
10-Aug-17 21:50 33.677371 -117.867813 209 64ft 107kts
10-Aug-17 21:51 33.669926 -117.872264 173 64ft 4kts
10-Aug-17 21:52 33.669757 -117.870184 43 64ft 17kts
10-Aug-17 21:53 33.674675 -117.866102 27 64ft 19kts
10-Aug-17 21:54 33.679075 -117.863305 26 64ft 15kts
10-Aug-17 21:55 33.679981 -117.862759 29 64ft 0kts
10-Aug-17 21:56 33.680118 -117.861833 90 64ft 0kts
10-Aug-17 21:57 33.680118 -117.861829 90 64ft 0kts
10-Aug-17 21:58 33.680118 -117.861829 90 64ft 0kts
10-Aug-17 21:59 33.680118 -117.861829 90 64ft 0kts
10-Aug-17 22:00 33.680118 -117.861829 90 64ft 0kts
10-Aug-17 22:01 33.680118 -117.861829 90 64ft 0kts

Navigation Log

Ident Type
Flight plan parsing failed, navigation log unavailable